Date,TemperatureHighF,TemperatureAvgF,TemperatureLowF,DewpointHighF,DewpointAvgF,DewpointLowF,HumidityHigh,HumidityAvg,HumidityLow,PressureMaxIn,PressureMinIn,WindSpeedMaxMPH,WindSpeedAvgMPH,GustSpeedMaxMPH,PrecipitationSumIn
2012-1-1,60.9,49.6,36.3,48.3,28.6,5.6,79,47,16,29.89,29.67,5,1,12,0.00
2012-1-2,36.0,28.6,15.7,15.3,5.4,-2.9,69,38,20,29.91,29.74,7,2,13,0.00
2012-1-3,28.4,19.3,13.6,8.4,-1.3,-5.8,74,41,26,30.16,29.91,3,1,12,0.00
2012-1-4,44.6,30.8,16.1,19.3,-1.7,-19.2,54,27,10,30.15,29.85,3,1,6,0.00
2012-1-5,51.4,40.9,31.6,24.1,19.8,12.4,69,45,25,29.94,29.83,3,1,6,0.00
2012-1-6,61.0,48.3,38.3,21.0,15.6,11.1,40,28,16,29.90,29.75,3,0,5,0.00
2012-1-7,59.5,51.1,46.0,46.7,39.5,17.4,89,66,31,29.85,29.72,4,1,9,0.02
2012-1-8,52.3,49.0,46.8,48.9,46.0,42.7,97,90,79,29.97,29.82,1,0,3,0.08
2012-1-9,51.7,49.5,47.3,51.4,48.8,46.2,100,98,84,29.94,29.81,2,0,3,0.00
2012-1-10,53.8,49.5,45.7,49.2,45.3,40.8,96,86,74,29.84,29.69,3,0,5,0.00
2012-1-11,51.4,46.9,41.8,51.4,46.0,40.7,100,97,86,29.68,29.21,3,1,6,0.00
2012-1-12,46.8,39.7,21.9,42.0,34.0,-99.9,99,85,53,29.51,29.31,6,-5,11,0.05
2012-1-13,32.4,23.4,18.0,14.0,10.1,7.0,77,57,39,29.92,29.51,5,2,14,0.00
2012-1-14,40.1,28.5,17.5,19.0,11.2,2.7,78,50,31,30.02,29.89,5,1,12,0.00
2012-1-15,41.9,32.8,28.2,21.5,12.6,-99.9,62,48,35,30.28,29.87,5,1,6,0.20
2012-1-16,40.9,34.5,30.1,26.5,16.9,-99.9,65,52,37,30.32,30.14,3,-21,6,0.04
2012-1-17,50.1,45.3,39.1,49.8,40.7,25.2,99,85,57,30.13,29.69,4,2,10,0.71
2012-1-18,48.5,35.6,27.2,47.4,25.8,18.4,96,69,43,29.90,29.67,3,1,6,0.01
2012-1-19,39.8,30.8,24.5,23.5,18.4,-99.9,84,62,42,30.00,29.85,2,-7,5,0.16
2012-1-20,51.9,43.0,37.9,44.5,34.9,18.4,95,75,42,29.90,29.77,2,0,6,0.42
2012-1-21,51.6,47.6,41.9,51.3,47.1,40.6,99,98,95,29.84,29.62,3,1,5,0.42
2012-1-22,45.2,41.9,39.8,43.9,40.4,38.4,98,94,91,30.02,29.84,2,1,4,0.04
2012-1-23,47.4,41.7,36.8,47.4,41.3,36.3,100,99,98,29.98,29.77,3,1,6,0.85
2012-1-24,60.7,47.2,38.0,46.5,34.1,20.4,99,65,22,30.06,29.80,2,1,5,0.00
2012-1-25,56.9,48.3,39.5,34.9,27.3,15.5,60,45,29,30.10,29.93,2,0,5,0.00
2012-1-26,55.6,51.9,47.3,55.3,48.0,33.9,99,87,56,29.92,29.41,4,1,15,0.63
2012-1-27,55.0,47.2,34.4,54.7,38.3,26.4,99,74,36,29.82,29.36,5,2,12,0.17
2012-1-28,53.9,40.4,32.7,33.0,26.5,8.0,85,60,35,30.01,29.78,5,1,9,0.00
2012-1-29,45.4,35.1,23.8,10.2,3.8,-6.8,55,28,11,30.17,29.99,4,1,12,0.00
2012-1-30,53.3,41.8,34.4,17.3,11.8,7.6,36,29,20,30.22,30.07,3,1,6,0.00
2012-1-31,59.3,47.6,39.5,24.1,17.1,10.3,41,30,20,30.18,30.03,2,1,6,0.00
2012-2-1,56.5,49.1,45.7,48.7,39.1,24.3,96,70,42,30.03,29.82,2,1,5,0.26
2012-2-2,59.8,51.1,44.2,48.7,34.0,15.8,96,58,21,30.07,29.79,4,1,7,0.00
2012-2-3,54.1,44.2,35.8,27.1,22.3,13.8,64,44,22,30.22,30.06,2,1,4,0.00
2012-2-4,52.9,45.6,39.3,51.2,40.9,24.8,98,85,49,30.12,29.80,2,0,5,0.62
2012-2-5,61.2,51.5,42.5,51.2,42.5,33.4,97,74,38,29.89,29.72,4,2,7,0.02
2012-2-6,48.8,39.0,34.4,38.5,33.6,30.1,97,82,52,30.02,29.88,2,0,3,0.00
2012-2-7,55.6,40.5,30.9,34.0,29.5,21.0,91,67,36,30.00,29.86,2,0,5,0.01
2012-2-8,49.9,39.8,32.1,34.2,26.9,22.4,86,61,36,29.97,29.85,4,1,7,0.01
2012-2-9,43.9,34.0,26.7,26.3,23.5,19.8,79,66,46,30.08,29.93,2,0,5,0.00
2012-2-10,46.5,38.0,32.5,28.1,25.5,23.3,74,61,43,29.96,29.66,2,0,5,0.00
2012-2-11,38.5,27.4,14.8,26.0,11.1,-7.4,79,51,32,29.96,29.56,4,2,8,0.00
2012-2-12,38.3,22.8,10.7,6.9,0.4,-5.6,55,39,24,30.14,29.95,3,0,5,0.00
2012-2-13,46.2,31.7,19.2,11.6,8.1,4.2,60,38,22,30.09,29.85,3,0,3,0.00
2012-2-14,37.9,34.6,30.6,35.5,28.7,9.7,93,81,32,29.90,29.80,3,1,9,0.03
2012-2-15,59.3,43.9,31.3,38.4,28.1,18.6,93,60,21,30.07,29.89,3,0,5,0.01
2012-2-16,56.2,47.6,43.2,52.7,41.1,31.1,95,79,58,29.97,29.75,4,0,5,0.17
2012-2-17,60.2,47.0,38.5,40.8,33.8,20.3,87,63,27,29.92,29.79,2,1,3,0.00
2012-2-18,55.1,46.8,39.5,41.0,31.5,21.4,86,56,40,29.89,29.67,2,0,4,0.02
2012-2-19,44.8,39.0,32.1,41.8,36.2,26.3,93,90,77,29.73,29.46,3,1,9,0.57
2012-2-20,49.6,36.4,27.0,26.7,19.5,7.3,83,54,18,30.11,29.73,3,1,5,0.00
2012-2-21,46.1,38.3,29.8,37.7,27.7,16.7,76,66,52,30.07,29.78,3,1,7,0.00
2012-2-22,59.9,50.7,44.2,46.0,34.7,21.1,89,55,36,29.78,29.35,5,2,7,0.07
2012-2-23,65.5,57.0,48.9,51.9,46.2,41.4,87,68,49,29.45,29.33,4,2,7,0.01
2012-2-24,65.2,53.0,33.4,55.8,40.6,11.3,91,66,25,29.68,29.30,6,2,12,0.03
2012-2-25,44.8,35.0,28.2,15.3,8.9,2.3,50,35,20,30.09,29.68,9,3,19,0.00
2012-2-26,48.9,35.9,25.7,18.0,13.1,7.3,54,40,23,30.25,30.08,3,1,4,0.00
2012-2-27,60.1,47.4,35.5,46.1,36.1,17.6,92,67,43,30.20,30.05,4,0,7,0.01
2012-2-28,62.0,52.1,44.2,44.0,33.4,28.0,84,50,34,30.18,30.00,3,1,6,0.00
2012-2-29,56.6,53.4,48.8,56.3,52.3,44.2,99,96,82,30.00,29.63,3,1,6,0.20
2012-3-1,71.5,59.9,52.9,55.6,31.6,6.6,98,45,10,29.66,29.54,4,2,11,0.02
2012-3-2,58.7,55.5,50.8,58.0,49.8,26.6,99,84,31,29.65,29.42,3,1,9,0.51
2012-3-3,57.3,48.1,39.9,55.9,38.3,18.9,96,72,38,29.58,29.31,3,1,5,0.54
2012-3-4,40.5,35.9,31.3,25.2,13.8,5.4,57,41,25,29.81,29.47,8,2,15,0.00
2012-3-5,46.7,38.1,29.3,24.2,12.4,5.5,56,36,19,30.25,29.66,7,2,21,0.00
2012-3-6,52.0,38.3,27.6,16.6,12.7,8.0,51,36,19,30.40,30.24,2,0,4,0.00
2012-3-7,53.9,46.4,37.0,42.9,34.2,14.2,87,64,38,30.38,30.16,2,0,6,0.00
2012-3-8,62.1,54.0,49.1,51.2,46.3,43.0,93,76,53,30.16,29.85,2,1,7,0.22
2012-3-9,54.5,48.8,39.5,51.3,31.0,10.7,94,57,18,30.09,29.80,4,2,7,0.38
2012-3-10,57.8,45.4,38.3,21.5,11.1,0.0,43,25,18,30.26,30.07,4,1,7,0.00
2012-3-11,58.9,45.8,33.7,35.5,26.0,14.9,73,48,26,30.32,30.18,2,0,6,0.00
2012-3-12,54.8,50.3,47.0,50.8,46.2,35.9,96,86,60,30.18,30.03,2,0,4,0.13
2012-3-13,70.4,58.7,51.9,57.7,52.2,45.4,99,81,44,30.03,29.88,4,1,5,0.11
2012-3-14,76.0,62.9,55.4,52.9,41.6,36.3,88,48,25,30.02,29.90,2,0,6,0.00
2012-3-15,76.5,63.9,56.6,47.4,42.9,38.2,63,47,28,30.03,29.91,3,1,5,0.00
2012-3-16,73.7,60.3,52.2,59.4,47.3,40.5,88,65,33,30.00,29.88,4,1,10,0.48
2012-3-17,70.3,60.6,53.2,52.1,48.6,46.3,84,66,45,30.00,29.90,4,1,5,0.00
2012-3-18,69.8,58.7,53.5,58.5,52.6,46.7,94,81,54,30.07,29.93,3,1,6,1.04
2012-3-19,74.6,63.6,55.6,56.2,50.8,46.7,92,66,38,29.97,29.84,2,0,3,0.00
2012-3-20,77.2,66.6,59.2,52.1,49.6,46.5,74,56,36,29.94,29.84,3,1,5,0.00
2012-3-21,70.3,62.0,54.8,54.4,50.1,46.0,93,67,45,30.01,29.91,4,1,7,0.00
2012-3-22,68.6,61.3,56.5,57.6,54.7,49.8,92,80,58,30.00,29.89,2,0,5,0.01
2012-3-23,64.7,60.3,57.3,60.7,57.0,55.3,95,89,77,29.91,29.69,3,0,12,0.29
2012-3-24,67.1,57.1,47.6,56.2,48.1,33.4,96,75,31,29.69,29.49,4,1,4,0.17
2012-3-25,59.8,51.6,44.6,44.0,41.1,37.8,86,68,51,29.66,29.49,5,2,13,0.02
2012-3-26,73.0,60.7,52.3,42.9,37.0,27.7,67,45,19,29.82,29.64,5,2,11,0.00
2012-3-27,65.3,54.9,43.1,41.4,32.5,20.9,74,45,26,30.03,29.80,3,1,6,0.00
2012-3-28,73.7,61.1,49.6,48.6,42.4,33.2,78,52,33,29.99,29.71,6,2,19,0.00
2012-3-29,75.3,65.7,57.3,47.2,43.5,38.8,62,46,28,29.71,29.62,3,1,9,0.00
2012-3-30,73.9,62.0,55.9,54.5,44.1,28.0,94,56,26,29.75,29.62,3,0,5,0.19
2012-3-31,71.3,60.4,54.4,56.7,49.7,38.7,95,71,36,29.62,29.50,2,1,6,0.43
2012-4-1,75.8,60.9,52.2,48.0,43.7,33.0,82,57,24,29.64,29.51,4,1,8,0.00
2012-4-2,84.0,69.1,58.6,53.5,49.1,42.8,71,51,24,29.63,29.44,4,1,10,0.00
2012-4-3,75.1,62.8,56.3,56.0,51.4,44.2,92,68,49,29.72,29.61,3,0,6,0.68
2012-4-4,76.7,63.8,54.7,53.6,50.5,46.7,91,64,37,29.67,29.42,4,1,5,0.00
2012-4-5,69.9,58.6,48.0,58.3,50.6,46.6,95,76,50,29.48,29.40,4,1,7,3.34
2012-4-6,61.2,48.9,40.6,46.3,39.6,29.2,95,74,31,29.89,29.47,4,1,8,0.17
2012-4-7,66.0,53.0,40.8,38.5,30.4,24.2,62,43,27,30.02,29.88,3,1,7,0.00
2012-4-8,73.5,58.7,46.0,37.3,31.5,24.9,61,37,22,29.95,29.75,3,1,6,0.00
2012-4-9,72.1,57.8,47.6,34.9,19.9,8.0,48,26,9,29.86,29.68,5,2,9,0.00
2012-4-10,66.3,55.4,46.1,31.3,24.5,17.1,40,30,25,29.76,29.63,7,2,10,0.00
2012-4-11,59.9,46.6,36.6,22.0,13.3,7.3,43,27,14,29.90,29.65,3,1,6,0.00
2012-4-12,60.1,44.2,29.5,24.5,17.2,8.1,58,36,16,30.03,29.89,3,1,5,0.00
2012-4-13,64.2,51.3,38.9,25.7,22.9,17.8,58,35,20,30.03,29.87,3,1,6,0.00
2012-4-14,68.4,55.7,44.6,38.2,31.4,20.8,58,40,28,30.09,29.95,2,0,5,0.00
2012-4-15,73.2,61.6,51.1,54.7,46.4,33.5,79,59,43,29.97,29.89,3,1,7,0.00
2012-4-16,75.6,64.1,56.6,55.7,53.5,50.1,87,70,44,29.93,29.85,3,1,8,0.00
2012-4-17,76.8,63.6,52.6,55.3,51.5,47.3,94,67,41,29.94,29.80,2,1,7,1.10
2012-4-18,53.1,51.6,49.8,52.0,50.4,48.7,97,96,93,29.89,29.76,2,1,5,0.98
2012-4-19,61.8,54.1,49.1,52.7,49.9,48.0,98,87,66,29.83,29.74,3,0,4,0.01
2012-4-20,66.1,56.1,51.4,51.9,49.9,48.0,94,81,53,29.78,29.61,2,0,5,0.00
2012-4-21,67.6,59.5,54.1,54.9,52.7,48.0,94,79,50,29.64,29.44,1,0,4,0.00
2012-4-22,62.0,50.0,37.2,51.3,41.5,24.6,92,74,39,29.47,29.27,4,1,6,0.12
2012-4-23,51.9,41.3,34.1,25.4,19.5,12.3,67,44,24,29.58,29.37,5,2,9,0.00
2012-4-24,57.0,45.8,37.0,36.7,23.1,14.0,73,43,23,29.66,29.51,6,2,13,0.00
2012-4-25,69.3,55.8,43.2,54.8,43.8,35.7,86,66,44,29.69,29.61,3,1,8,0.02
2012-4-26,64.0,59.9,54.8,58.7,54.2,48.0,94,82,63,29.70,29.55,2,1,6,0.25
2012-4-27,75.4,63.8,58.0,60.5,56.1,48.6,93,77,53,29.81,29.64,2,0,6,0.00
2012-4-28,70.4,60.7,54.4,56.3,51.3,46.4,92,72,54,29.88,29.77,2,0,4,0.00
2012-4-29,79.8,67.0,58.4,58.9,56.1,44.5,94,70,38,29.90,29.81,2,0,3,0.00
2012-4-30,80.1,68.9,59.9,60.0,56.5,53.0,85,66,41,29.93,29.81,3,1,7,0.00
2012-5-1,80.9,68.3,62.1,67.2,60.1,56.0,92,76,46,29.89,29.79,2,0,4,0.00
2012-5-2,82.2,70.3,61.5,61.7,57.7,53.8,88,67,40,29.89,29.79,2,0,5,0.00
2012-5-3,82.0,69.0,59.8,58.2,55.6,50.3,85,64,35,29.90,29.80,2,0,4,0.00
2012-5-4,78.3,67.8,62.3,61.4,57.1,52.9,85,70,44,29.87,29.70,2,0,4,0.00
2012-5-5,78.6,68.4,60.5,57.7,54.3,48.4,84,62,35,29.72,29.59,2,0,7,0.00
2012-5-6,76.5,66.4,59.5,57.9,55.1,52.8,85,68,48,29.77,29.64,2,0,3,0.00
2012-5-7,74.7,64.6,60.4,59.7,57.0,54.4,92,78,53,29.78,29.66,2,0,4,0.01
2012-5-8,71.3,63.3,59.3,63.6,60.2,57.6,99,90,70,29.69,29.56,2,0,5,0.33
2012-5-9,61.8,58.3,51.4,60.6,53.8,38.3,97,86,57,29.63,29.47,2,0,5,0.55
2012-5-10,66.8,55.3,47.3,46.6,40.3,34.6,81,58,41,29.75,29.56,1,0,4,0.00
2012-5-11,68.6,56.6,46.5,44.7,39.0,34.1,70,52,35,29.98,29.74,2,0,3,0.00
2012-5-12,63.4,56.9,51.7,56.3,49.7,39.7,94,77,60,30.09,29.96,1,0,3,0.03
2012-5-13,56.7,55.3,53.1,55.2,53.7,50.8,96,94,92,30.01,29.82,1,0,2,0.93
2012-5-14,70.6,61.1,55.9,61.2,57.8,55.1,99,90,64,29.82,29.64,2,0,4,1.81
2012-5-15,73.0,61.9,54.2,61.4,56.5,52.1,99,84,49,29.74,29.66,2,0,3,0.58
2012-5-16,73.9,61.9,53.5,61.7,55.0,45.7,99,80,46,29.76,29.65,1,0,2,0.01
2012-5-17,73.9,64.2,56.7,57.5,52.6,46.6,91,67,46,29.77,29.68,1,0,5,0.00
2012-5-18,73.0,62.0,55.9,57.5,54.7,51.6,94,78,52,29.85,29.75,2,0,6,0.00
2012-5-19,75.1,62.5,52.8,57.9,53.1,46.4,89,73,44,29.92,29.80,2,0,3,0.00
2012-5-20,76.8,63.7,54.4,54.8,48.4,40.9,87,61,30,29.91,29.80,2,0,3,0.00
2012-5-21,77.0,61.7,55.3,60.4,52.0,44.4,96,73,41,29.82,29.66,2,0,4,0.57
2012-5-22,65.8,59.2,54.7,61.4,56.3,52.5,98,91,65,29.67,29.58,1,0,2,0.26
2012-5-23,68.6,60.3,55.7,62.2,57.9,54.6,97,92,67,29.69,29.58,1,0,2,0.24
2012-5-24,75.3,64.7,55.9,63.7,57.6,53.7,100,80,50,29.78,29.68,2,0,4,0.00
2012-5-25,81.4,69.1,60.5,63.4,58.8,54.1,92,71,47,29.89,29.77,1,0,3,0.00
2012-5-26,82.6,71.9,64.3,63.6,59.2,55.6,85,66,41,29.90,29.81,2,0,4,0.00
2012-5-27,79.2,69.8,62.6,62.6,59.8,56.2,92,72,48,29.87,29.79,2,0,5,0.00
2012-5-28,79.8,69.1,63.2,64.2,61.3,56.8,95,78,46,29.81,29.70,2,0,4,0.03
2012-5-29,73.2,66.6,62.1,66.1,63.4,60.0,97,90,67,29.74,29.59,1,0,2,0.21
2012-5-30,80.1,68.5,58.9,60.7,50.1,37.4,97,60,22,29.62,29.55,2,1,6,0.01
2012-5-31,78.1,69.2,62.1,59.9,52.2,43.5,76,55,42,29.66,29.54,2,0,4,0.00
2012-6-1,66.9,61.9,54.8,63.1,57.2,44.5,98,85,61,29.58,29.49,3,1,5,0.13
2012-6-2,70.8,56.9,46.8,51.5,44.3,38.6,87,65,36,29.72,29.57,1,0,4,0.00
2012-6-3,74.4,63.2,51.4,49.9,44.3,37.9,75,52,27,29.75,29.61,3,1,6,0.00
2012-6-4,76.0,65.5,59.9,62.3,56.2,47.4,96,73,47,29.62,29.47,2,0,2,0.15
2012-6-5,68.1,60.4,54.8,59.4,55.6,52.1,95,85,67,29.62,29.45,1,0,3,0.38
2012-6-6,63.1,57.8,53.1,57.0,54.2,52.0,97,88,72,29.77,29.59,1,0,4,0.06
2012-6-7,70.1,61.0,54.8,58.6,55.4,52.3,97,83,57,29.83,29.75,1,0,2,0.00
2012-6-8,74.4,64.1,55.6,60.6,55.5,53.0,92,75,51,29.84,29.76,1,0,3,0.00
2012-6-9,75.3,66.5,59.3,61.9,56.6,53.0,87,71,51,29.86,29.77,1,0,3,0.00
2012-6-10,63.7,60.8,58.6,60.1,57.2,53.2,97,88,71,29.91,29.79,1,0,3,0.32
2012-6-11,70.8,64.5,58.6,66.5,62.9,57.8,100,95,82,29.89,29.74,1,0,2,0.53
2012-6-12,77.6,67.9,64.2,69.4,65.6,62.1,98,93,69,29.75,29.64,1,0,2,0.13
2012-6-13,77.0,66.9,63.7,67.0,62.1,58.7,97,85,61,29.75,29.68,2,0,5,0.36
2012-6-14,75.6,65.9,59.3,63.8,59.7,52.5,97,82,56,29.91,29.74,2,0,3,0.17
2012-6-15,72.5,64.1,58.4,62.4,58.5,55.2,94,82,65,29.99,29.84,1,0,4,0.01
2012-6-16,72.8,62.9,56.0,60.4,56.4,52.8,92,80,61,30.03,29.90,2,0,3,0.00
2012-6-17,75.3,65.3,57.3,61.1,55.7,50.6,85,72,55,29.94,29.78,1,0,3,0.00
2012-6-18,74.6,67.4,61.0,63.1,59.0,56.0,90,75,61,29.85,29.75,1,0,3,0.00
2012-6-19,80.1,69.7,62.1,64.3,59.0,55.8,86,70,46,29.94,29.86,1,0,6,0.00
2012-6-20,82.6,71.1,62.9,65.8,61.5,58.7,88,73,53,29.95,29.83,1,0,2,0.00
2012-6-21,79.9,71.1,64.7,68.7,62.7,60.1,91,76,51,29.85,29.70,1,0,2,0.03
2012-6-22,82.4,69.1,64.3,68.1,62.9,60.2,96,81,55,29.73,29.62,1,0,2,0.10
2012-6-23,83.0,69.2,62.7,68.9,63.2,58.5,94,82,54,29.75,29.65,2,0,3,0.64
2012-6-24,81.1,70.5,64.5,70.2,66.5,63.2,98,88,55,29.76,29.64,1,0,2,0.23
2012-6-25,85.1,72.8,64.5,69.7,62.7,55.7,98,75,37,29.67,29.47,1,0,3,0.00
2012-6-26,78.6,68.2,59.8,58.4,54.0,49.1,85,62,41,29.64,29.48,2,0,3,0.00
2012-6-27,80.1,66.3,55.4,59.2,51.7,45.0,80,61,36,29.78,29.63,1,0,2,0.00
2012-6-28,86.5,73.8,61.8,63.1,55.2,44.5,76,54,29,29.82,29.67,1,0,2,0.00
2012-6-29,95.9,82.6,73.9,66.7,54.2,39.7,58,39,25,29.67,29.58,1,0,2,0.00
2012-6-30,94.3,81.8,73.0,69.6,62.6,55.0,72,53,32,29.67,29.56,1,0,3,0.00
2012-7-1,94.9,80.9,66.3,71.4,62.0,55.8,91,55,29,29.79,29.61,3,0,12,0.10
2012-7-2,82.8,71.3,63.2,69.6,65.0,62.3,98,83,53,29.88,29.74,2,0,4,0.51
2012-7-3,83.4,73.9,66.0,69.2,65.6,61.7,92,77,48,29.80,29.69,1,0,3,0.00
2012-7-4,84.7,73.2,67.4,70.6,63.3,56.3,94,72,52,29.80,29.70,2,0,2,0.32
2012-7-5,88.6,73.1,64.2,69.7,63.8,56.7,96,74,38,29.79,29.66,2,0,3,0.43
2012-7-6,86.3,75.5,65.2,68.0,62.3,54.4,82,65,43,29.75,29.66,1,0,4,0.01
2012-7-7,87.2,75.6,68.6,71.7,66.1,63.2,86,73,52,29.79,29.71,1,0,2,0.00
2012-7-8,85.3,74.4,70.6,73.1,67.2,64.7,88,79,54,29.78,29.64,1,0,3,0.62
2012-7-9,79.8,71.7,65.5,72.1,67.0,62.7,98,86,65,29.73,29.64,2,0,3,0.96
2012-7-10,79.0,69.3,65.3,70.7,67.0,63.1,98,93,67,29.76,29.68,3,0,4,1.47
2012-7-11,71.3,66.5,64.3,68.5,65.0,62.9,99,95,85,29.87,29.74,1,0,3,1.35
2012-7-12,67.1,64.5,62.6,65.7,63.8,62.3,99,97,92,29.90,29.81,1,0,2,0.17
2012-7-13,75.4,67.9,63.9,71.7,66.2,63.3,100,95,76,29.93,29.83,1,0,3,1.26
2012-7-14,80.5,71.0,66.4,69.8,67.4,64.7,99,89,66,29.96,29.85,1,0,3,0.27
2012-7-15,78.1,69.4,66.3,71.0,67.2,65.1,98,93,70,29.95,29.84,1,0,2,1.53
2012-7-16,82.0,70.4,64.5,69.4,65.9,63.2,99,87,55,29.89,29.72,2,0,2,0.46
2012-7-17,80.1,71.2,65.5,69.8,66.1,62.5,99,85,60,29.78,29.69,1,0,3,0.02
2012-7-18,79.9,69.3,66.0,68.7,65.3,59.8,99,88,56,29.77,29.69,2,0,3,0.25
2012-7-19,81.6,70.0,65.2,71.6,67.2,64.6,99,92,58,29.81,29.71,2,0,2,0.15
2012-7-20,76.1,71.7,66.1,70.6,67.4,63.7,95,87,67,29.73,29.67,1,0,3,0.23
2012-7-21,79.8,72.0,66.4,71.0,67.3,65.1,97,86,62,29.83,29.69,2,0,3,0.00
2012-7-22,85.3,73.9,67.1,69.8,66.7,64.7,97,80,55,29.93,29.82,1,0,4,0.00
2012-7-23,85.5,74.0,67.8,74.2,67.9,63.7,93,82,55,29.96,29.81,1,0,2,0.08
2012-7-24,85.9,74.5,68.4,72.7,67.5,64.2,93,80,53,29.82,29.70,1,0,1,0.02
2012-7-25,85.3,79.1,73.2,73.4,70.2,65.9,89,75,60,29.74,29.65,1,0,3,0.00
2012-7-26,88.4,77.0,69.4,70.8,68.2,64.4,93,76,50,29.70,29.58,1,0,3,0.00
2012-7-27,85.3,74.4,65.5,74.1,67.5,62.5,98,80,51,29.70,29.58,2,0,3,0.62
2012-7-28,86.5,74.1,65.0,69.0,65.0,59.3,98,76,48,29.78,29.67,1,0,3,0.01
2012-7-29,81.8,71.6,63.7,67.9,62.5,58.6,91,74,49,29.78,29.69,2,0,2,0.00
2012-7-30,77.9,70.3,65.0,71.5,63.6,59.8,92,80,60,29.76,29.67,1,0,5,0.08
2012-7-31,68.1,66.4,63.4,67.5,65.6,62.8,99,97,94,29.74,29.66,1,0,3,1.33
2012-8-1,83.2,69.8,61.2,70.7,64.7,58.9,100,85,50,29.70,29.63,1,0,2,0.00
2012-8-2,84.1,72.8,65.0,71.6,65.4,59.2,96,79,49,29.69,29.60,1,0,3,0.02
2012-8-3,80.3,71.3,65.8,70.4,67.6,64.3,99,89,65,29.80,29.62,2,0,4,0.97
2012-8-4,74.6,68.3,64.0,71.4,66.9,63.7,100,96,82,29.95,29.78,1,0,2,1.69
2012-8-5,79.8,71.4,66.0,70.4,67.0,64.5,99,87,62,29.97,29.85,1,0,6,0.00
2012-8-6,77.2,70.1,66.4,71.9,67.4,64.5,98,92,72,29.88,29.76,1,0,2,0.32
2012-8-7,74.2,68.9,65.8,70.9,67.8,65.5,100,96,85,29.80,29.71,1,0,1,0.79
2012-8-8,77.7,68.1,64.3,71.2,66.6,64.0,100,95,71,29.77,29.71,1,0,2,0.41
2012-8-9,79.6,68.3,62.9,70.7,66.3,62.0,100,94,71,29.75,29.59,1,0,5,0.57
2012-8-10,75.1,67.3,62.9,69.6,65.5,62.9,100,94,75,29.63,29.55,1,0,4,0.86
2012-8-11,76.5,66.4,60.2,69.3,64.7,58.4,100,95,70,29.72,29.57,1,0,2,0.35
2012-8-12,75.1,65.2,57.0,66.9,60.0,55.2,96,84,60,29.80,29.68,1,0,2,0.00
2012-8-13,77.0,67.0,60.5,62.7,60.1,56.2,96,80,52,29.81,29.70,1,0,4,0.00
2012-8-14,80.3,68.7,61.5,68.9,62.9,55.6,96,82,60,29.73,29.62,1,0,2,0.00
2012-8-15,77.0,68.3,63.2,66.0,62.0,57.3,98,82,54,29.75,29.63,2,0,3,0.01
2012-8-16,79.8,66.8,59.6,65.8,60.4,53.0,94,81,55,29.82,29.71,1,0,2,0.00
2012-8-17,74.7,68.2,62.6,67.0,63.0,59.6,93,84,70,29.77,29.60,1,0,2,0.00
2012-8-18,73.2,66.2,61.5,66.5,63.1,60.4,99,90,73,29.69,29.59,1,0,5,0.09
2012-8-19,70.9,65.2,61.3,65.8,63.3,61.0,100,94,77,29.66,29.57,1,0,2,0.19
2012-8-20,74.2,64.5,59.2,63.3,59.2,50.7,99,84,51,29.75,29.59,1,0,3,0.02
2012-8-21,73.5,63.0,55.9,63.4,57.0,51.4,93,81,55,29.84,29.73,1,0,1,0.01
2012-8-22,74.4,64.2,58.0,63.6,58.4,54.1,94,82,58,29.88,29.81,1,0,5,0.01
2012-8-23,73.3,65.0,59.5,65.9,61.7,58.2,99,90,69,29.91,29.84,1,0,2,0.67
2012-8-24,76.5,65.3,59.9,65.5,61.5,58.0,100,89,59,29.93,29.83,1,0,3,0.01
2012-8-25,77.4,64.9,58.3,66.1,60.9,57.7,99,88,54,29.93,29.83,1,0,3,0.20
2012-8-26,77.7,67.4,60.4,68.5,62.7,59.0,100,86,56,29.93,29.83,1,0,3,0.01
2012-8-27,79.6,68.3,60.4,66.9,62.2,58.2,99,83,53,29.91,29.78,1,0,4,0.00
2012-8-28,74.4,68.2,64.3,69.5,65.1,60.2,98,90,71,29.80,29.70,1,0,1,0.06
2012-8-29,77.2,69.2,65.5,70.1,67.1,64.8,99,93,74,29.76,29.68,1,0,2,0.02
2012-8-30,75.6,69.8,65.3,70.6,67.7,65.2,100,94,77,29.91,29.73,1,0,3,0.12
2012-8-31,82.8,71.7,65.6,72.3,67.5,64.9,99,88,61,29.99,29.88,1,0,2,0.00
2012-9-1,83.2,72.6,66.8,70.6,65.9,61.3,92,80,56,29.92,29.80,1,0,2,0.01
2012-9-2,77.7,70.6,66.8,72.0,68.0,65.3,99,92,68,29.82,29.68,1,0,4,0.74
2012-9-3,74.6,69.2,65.6,70.6,68.3,65.2,100,97,82,29.74,29.65,2,0,4,1.07
2012-9-4,69.3,67.0,65.6,69.3,67.0,65.6,100,100,100,29.71,29.65,1,0,2,0.30
2012-9-5,76.0,69.4,66.1,70.3,67.7,66.1,100,95,76,29.71,29.62,1,0,3,0.10
2012-9-6,80.1,70.9,66.6,71.2,67.8,63.9,100,91,67,29.70,29.61,1,0,3,0.00
2012-9-7,79.9,69.2,63.7,70.6,66.2,63.0,99,91,66,29.74,29.59,1,0,3,0.00
2012-9-8,77.7,67.8,57.2,68.8,64.3,56.1,100,89,68,29.61,29.46,2,0,4,0.11
2012-9-9,72.8,60.9,53.8,56.4,48.7,40.9,97,66,39,29.80,29.59,2,0,3,0.00
2012-9-10,71.6,61.9,55.6,59.3,52.0,46.4,86,70,53,29.90,29.77,1,0,2,0.00
2012-9-11,68.4,62.2,57.0,59.3,55.8,52.3,94,80,64,30.04,29.88,1,0,3,0.00
2012-9-12,71.6,61.4,56.0,59.9,56.6,54.3,97,85,57,30.11,30.00,1,0,2,0.00
2012-9-13,69.1,60.0,54.1,56.9,54.1,51.3,96,82,56,30.12,30.01,1,0,4,0.00
2012-9-14,71.5,62.5,55.9,61.9,56.9,53.4,92,83,58,30.03,29.93,1,0,2,0.00
2012-9-15,76.3,64.9,58.9,62.6,58.2,54.2,92,80,50,29.98,29.85,2,0,2,0.00
2012-9-16,69.9,64.0,60.7,65.5,61.3,58.1,99,91,81,29.88,29.79,1,0,2,0.09
2012-9-17,67.6,63.5,60.5,66.2,63.1,59.6,100,99,93,29.84,29.55,2,0,3,1.08
2012-9-18,65.5,63.0,58.1,65.5,62.8,55.8,100,99,92,29.63,29.43,4,1,10,2.44
2012-9-19,70.6,58.1,49.1,58.9,53.5,46.6,97,85,62,29.87,29.64,1,0,4,0.00
2012-9-20,68.6,59.8,54.7,59.3,56.3,54.1,98,89,67,29.92,29.81,1,0,2,0.00
2012-9-21,72.8,62.4,55.9,62.7,58.6,55.3,99,88,64,29.86,29.74,1,0,2,0.00
2012-9-22,76.5,65.3,58.7,61.7,57.7,44.8,96,78,49,29.78,29.67,2,0,3,0.00
2012-9-23,71.6,58.1,51.0,50.9,41.6,33.5,77,55,31,29.91,29.76,1,0,2,0.00
2012-9-24,65.5,53.2,44.6,47.0,39.7,32.3,79,61,44,30.00,29.88,1,0,4,0.00
2012-9-25,71.8,58.1,49.4,59.2,51.3,43.2,92,79,53,30.00,29.92,2,0,3,0.00
2012-9-26,75.1,63.3,56.2,62.4,56.5,52.8,92,80,56,29.98,29.89,1,0,2,0.00
2012-9-27,77.2,64.0,55.3,61.2,56.4,52.7,93,78,49,29.98,29.85,1,0,3,0.00
2012-9-28,76.5,65.8,58.9,63.4,59.0,56.0,94,80,52,29.88,29.73,2,0,2,0.00
2012-9-29,71.6,63.3,57.2,62.4,59.0,55.2,95,86,66,29.77,29.58,1,0,2,0.02
2012-9-30,67.1,58.9,52.8,57.1,54.4,51.2,96,85,66,29.67,29.59,2,0,5,0.00
2012-10-1,61.2,57.9,55.7,61.2,57.6,55.4,100,99,96,29.61,29.48,2,0,3,1.88
2012-10-2,67.1,62.6,59.0,64.2,61.0,57.9,100,95,77,29.73,29.46,3,1,9,1.85
2012-10-3,70.3,61.1,57.6,59.5,56.9,47.0,97,87,44,29.94,29.73,1,0,2,0.00
2012-10-4,73.0,61.0,53.9,59.7,54.9,48.7,98,82,44,30.02,29.92,1,0,2,0.00
2012-10-5,72.0,60.5,53.2,57.2,52.9,50.2,93,78,48,29.99,29.78,1,0,4,0.00
2012-10-6,72.3,62.5,55.1,59.8,55.0,51.7,95,77,59,29.80,29.64,3,0,4,0.00
2012-10-7,58.7,52.9,44.2,57.6,51.8,40.3,100,96,85,29.86,29.67,2,0,6,0.13
2012-10-8,45.5,43.7,41.9,43.9,41.8,38.3,98,93,83,29.97,29.84,1,0,2,0.01
2012-10-9,55.1,46.2,42.8,46.8,44.5,42.5,99,94,70,29.95,29.85,1,0,2,0.00
2012-10-10,60.4,51.3,43.6,47.9,45.1,42.5,97,81,60,29.92,29.83,4,1,10,0.00
2012-10-11,64.0,50.5,40.1,48.9,43.5,38.0,95,78,50,30.07,29.91,1,0,3,0.00
2012-10-12,68.6,56.6,48.9,54.9,48.1,37.0,88,74,49,30.06,29.92,1,0,4,0.00
2012-10-13,61.6,53.1,48.6,50.6,45.3,40.3,92,76,47,30.19,30.04,0,0,0,0.00
2012-10-14,59.5,54.5,48.6,58.9,52.4,46.4,99,93,83,30.09,29.78,0,0,0,0.00
2012-10-15,65.2,58.1,49.2,59.8,49.6,34.4,100,77,40,29.78,29.55,4,1,5,1.08
2012-10-16,65.2,52.6,44.2,45.3,38.9,33.4,78,61,35,29.75,29.63,2,0,6,0.00
2012-10-17,65.2,53.6,47.3,45.7,42.0,37.6,82,66,42,29.76,29.64,1,0,3,0.00
2012-10-18,56.9,53.7,49.2,56.6,52.2,41.2,100,95,71,29.64,29.55,1,0,2,0.10
2012-10-19,62.0,51.8,44.5,51.2,34.5,25.9,97,54,30,29.58,29.48,2,0,5,0.01
2012-10-20,64.2,51.4,44.2,45.6,37.1,30.2,80,59,38,29.75,29.53,2,0,6,0.00
2012-10-21,65.5,51.4,42.9,47.5,43.1,39.2,90,75,45,29.95,29.73,0,0,0,0.00
2012-10-22,71.8,58.8,51.6,48.9,45.1,40.6,79,62,35,30.01,29.89,1,0,3,0.00
2012-10-23,72.3,60.4,53.9,51.0,47.1,41.7,82,63,35,29.97,29.84,1,0,2,0.00
2012-10-24,76.3,61.5,53.8,50.2,45.5,39.3,76,57,28,29.97,29.83,2,0,2,0.00
2012-10-25,68.3,59.6,53.6,54.6,49.4,43.3,87,70,55,29.91,29.83,1,0,5,0.00
2012-10-26,70.4,61.6,55.3,56.9,53.9,50.1,97,77,52,29.85,29.69,2,0,4,0.00
2012-10-27,66.6,57.2,50.4,52.0,50.1,46.1,92,78,56,29.71,29.50,3,1,4,0.00
2012-10-28,58.1,46.7,38.5,46.2,41.0,29.7,93,81,56,29.55,29.48,3,1,7,0.11
2012-10-29,46.7,39.6,36.6,30.1,27.1,23.3,72,61,46,29.51,29.37,5,2,13,0.00
2012-10-30,39.6,35.9,33.5,30.0,26.2,22.1,78,68,56,29.48,29.26,4,2,7,0.00
2012-10-31,52.2,41.9,35.8,30.4,22.4,11.4,78,50,22,29.60,29.46,4,2,9,0.00
2012-11-1,56.3,42.3,31.2,22.5,15.5,8.3,65,37,15,29.72,29.56,3,1,6,0.00
2012-11-2,63.5,50.6,41.2,36.7,27.5,15.4,53,41,24,29.75,29.60,5,2,13,0.00
2012-11-3,69.6,55.0,42.3,45.5,31.2,11.6,65,42,22,29.87,29.72,4,1,7,0.00
2012-11-4,64.3,56.4,41.9,47.7,43.0,35.5,82,62,38,29.73,29.63,3,1,5,0.00
2012-11-5,56.5,43.8,34.6,36.8,30.5,20.0,88,62,27,29.86,29.71,2,0,6,0.00
2012-11-6,42.9,36.4,33.5,33.9,31.4,24.7,94,83,51,29.86,29.72,2,0,4,0.07
2012-11-7,41.5,37.4,34.0,38.4,34.8,30.0,98,91,73,29.79,29.64,2,0,4,0.01
2012-11-8,56.0,43.2,34.7,30.0,24.0,16.3,76,50,22,29.96,29.79,3,1,6,0.00
2012-11-9,63.2,47.8,36.3,29.8,24.4,19.6,57,42,21,30.08,29.93,2,0,3,0.00
2012-11-10,66.6,54.2,47.4,30.9,24.9,16.8,45,33,20,30.14,29.99,2,0,5,0.00
2012-11-11,59.5,53.3,47.0,50.4,38.3,27.6,84,57,42,30.23,30.09,2,0,8,0.00
2012-11-12,57.6,55.4,53.8,56.2,54.0,50.4,98,95,85,30.10,29.92,2,1,6,0.21
2012-11-13,52.9,41.8,34.0,51.8,28.2,15.2,97,64,26,30.18,29.93,5,2,10,0.06
2012-11-14,49.4,37.0,29.4,28.7,24.6,20.2,80,61,42,30.24,30.08,3,1,6,0.00
2012-11-15,52.9,39.2,31.8,40.2,33.5,24.0,94,81,55,30.11,29.98,3,0,4,0.15
2012-11-16,55.6,41.9,33.2,36.7,29.4,16.5,96,66,25,30.15,30.00,3,0,5,0.00
2012-11-17,53.3,41.8,34.9,25.8,21.0,11.4,68,46,20,30.25,30.13,3,1,8,0.00
2012-11-18,52.0,42.7,35.8,39.4,31.7,15.7,81,66,39,30.24,30.12,4,1,8,0.00
2012-11-19,59.0,47.1,40.5,46.4,41.9,34.6,94,82,63,30.12,29.95,3,1,4,0.00
2012-11-20,57.8,48.2,42.1,45.3,41.4,31.6,97,79,39,29.95,29.81,2,0,4,0.00
2012-11-21,60.1,50.9,44.3,37.5,33.4,30.5,64,52,38,29.95,29.83,3,0,9,0.00
2012-11-22,60.4,49.0,42.2,35.1,31.8,29.7,64,52,34,30.03,29.91,3,0,5,0.00
2012-11-23,63.4,49.8,38.8,42.7,33.9,24.3,65,55,36,29.92,29.70,5,1,10,0.00
2012-11-24,48.3,35.5,26.6,24.3,16.4,6.3,71,48,23,29.92,29.71,3,0,7,0.00
2012-11-25,50.1,37.7,24.7,17.6,11.3,5.2,60,35,22,29.97,29.82,2,0,4,0.00
2012-11-26,60.7,48.5,38.6,26.6,17.9,9.5,39,30,23,29.98,29.83,3,0,5,0.00
2012-11-27,55.4,47.1,40.2,44.2,36.4,18.0,89,69,29,29.96,29.81,4,1,5,0.00
2012-11-28,52.0,39.4,31.5,36.9,27.2,15.1,95,66,27,30.19,29.94,3,0,4,0.00
2012-11-29,52.2,40.9,33.8,36.1,31.4,18.3,85,70,49,30.24,30.10,2,0,5,0.00
2012-11-30,55.3,44.5,37.9,38.1,33.3,27.1,79,65,47,30.17,30.04,2,0,5,0.00
2012-12-1,58.0,48.9,43.6,43.0,39.7,36.4,84,71,52,30.16,30.06,2,0,5,0.00
2012-12-2,59.5,52.6,46.7,49.2,45.3,40.9,96,77,54,30.14,30.01,2,1,7,0.01
2012-12-3,65.6,55.3,49.8,47.2,43.5,42.0,80,65,46,30.08,29.98,2,0,5,0.00
2012-12-4,63.4,56.2,51.3,47.8,45.5,43.2,85,68,49,30.07,29.93,3,0,10,0.00
2012-12-5,60.1,54.9,48.6,51.7,45.1,31.4,79,70,49,29.94,29.85,3,1,5,0.00
2012-12-6,51.9,46.7,42.2,36.4,31.0,21.1,76,55,39,30.02,29.91,2,0,4,0.00
2012-12-7,56.6,48.0,40.2,51.5,44.2,31.4,98,87,67,29.94,29.76,1,0,4,0.03
2012-12-8,58.6,52.0,46.8,53.2,49.4,45.9,98,91,71,29.81,29.74,2,0,3,0.01
2012-12-9,57.3,53.7,51.1,54.6,52.4,50.3,98,95,87,29.84,29.72,2,0,5,0.00
2012-12-10,54.8,53.5,52.8,54.7,53.3,52.8,100,99,98,29.72,29.44,2,1,10,0.13
2012-12-11,52.8,39.5,32.4,52.8,35.4,27.7,100,86,65,29.92,29.48,3,1,5,0.00
2012-12-12,39.1,35.9,32.4,32.0,30.0,28.1,89,79,70,30.07,29.92,4,1,6,0.00
2012-12-13,50.2,38.7,34.7,30.5,23.3,16.6,81,56,28,30.15,30.03,3,1,5,0.00
2012-12-14,56.6,41.3,31.6,29.6,22.6,15.4,78,49,20,30.17,30.00,1,0,3,0.00
2012-12-15,55.1,45.7,39.1,36.9,27.7,10.9,68,51,21,30.01,29.82,2,0,5,0.00
2012-12-16,52.3,48.6,44.9,51.2,45.9,34.0,98,91,65,29.83,29.68,2,0,4,0.18
2012-12-17,49.2,47.8,46.1,48.9,47.3,45.6,99,98,97,29.67,29.42,2,0,6,0.10
2012-12-18,51.3,44.7,38.8,47.0,30.3,12.8,99,62,28,29.75,29.43,3,1,5,0.00
2012-12-19,59.5,48.3,40.1,38.8,29.9,15.0,68,50,33,29.87,29.73,4,1,10,0.00
2012-12-20,49.1,44.1,32.8,46.8,38.6,24.1,98,82,62,29.84,29.37,5,1,10,1.49
2012-12-21,33.5,29.9,26.9,24.7,17.2,8.6,72,60,42,29.77,29.45,7,3,16,0.00
2012-12-22,52.5,37.2,26.9,10.4,1.9,-12.2,48,25,8,29.95,29.75,4,1,9,0.00
2012-12-23,52.9,42.7,34.1,31.7,13.9,-0.7,66,33,17,29.96,29.79,3,0,7,0.00
2012-12-24,45.1,43.1,40.5,44.3,39.2,22.3,98,88,42,29.80,29.61,2,0,7,0.70
2012-12-25,46.5,41.6,37.0,42.3,39.1,36.0,97,91,70,29.83,29.66,3,1,7,0.34
2012-12-26,46.4,39.3,29.0,45.9,36.8,23.0,98,91,74,29.65,29.24,5,2,16,2.58
2012-12-27,45.8,32.6,27.0,30.1,23.9,21.0,89,71,43,29.87,29.52,2,0,4,0.00
2012-12-28,45.1,34.1,27.8,30.9,27.2,24.4,91,77,50,29.94,29.72,1,0,3,0.10
2012-12-29,42.1,34.3,26.1,34.9,27.9,15.1,96,78,57,29.83,29.54,5,1,11,0.23
2012-12-30,43.1,30.8,23.9,18.9,13.7,6.0,74,51,23,30.22,29.83,3,0,5,0.00
2012-12-31,49.2,39.4,30.0,21.4,12.2,-1.8,57,34,15,30.17,29.88,1,0,3,0.00
2013-1-1,47.4,44.6,38.8,45.5,37.5,14.7,96,79,37,29.89,29.70,3,1,3,0.49